sensor_id;sensor_type;location;lat;lon;timestamp;P1;durP1;ratioP1;P2;durP2;ratioP2
51738;SDS011;37815;52.692;6.226;2023-02-15T00:03:36;11.35;;;6.18;;
51738;SDS011;37815;52.692;6.226;2023-02-15T00:08:37;8.50;;;5.90;;
51738;SDS011;37815;52.692;6.226;2023-02-15T00:13:38;8.80;;;6.07;;
51738;SDS011;37815;52.692;6.226;2023-02-15T00:18:42;9.23;;;6.22;;
51738;SDS011;37815;52.692;6.226;2023-02-15T00:23:42;10.98;;;5.82;;
51738;SDS011;37815;52.692;6.226;2023-02-15T00:28:43;9.13;;;5.85;;
51738;SDS011;37815;52.692;6.226;2023-02-15T00:33:43;8.57;;;5.55;;
51738;SDS011;37815;52.692;6.226;2023-02-15T00:38:44;9.30;;;5.85;;
51738;SDS011;37815;52.692;6.226;2023-02-15T00:43:45;8.93;;;5.95;;
51738;SDS011;37815;52.692;6.226;2023-02-15T00:48:45;9.68;;;5.97;;
51738;SDS011;37815;52.692;6.226;2023-02-15T00:53:46;8.70;;;6.03;;
51738;SDS011;37815;52.692;6.226;2023-02-15T00:58:47;8.80;;;5.50;;
51738;SDS011;37815;52.692;6.226;2023-02-15T01:03:48;8.05;;;5.25;;
51738;SDS011;37815;52.692;6.226;2023-02-15T01:08:49;8.27;;;5.50;;
51738;SDS011;37815;52.692;6.226;2023-02-15T01:13:50;7.95;;;5.05;;
51738;SDS011;37815;52.692;6.226;2023-02-15T01:18:55;7.65;;;4.80;;
51738;SDS011;37815;52.692;6.226;2023-02-15T01:24:01;7.50;;;5.07;;
51738;SDS011;37815;52.692;6.226;2023-02-15T01:29:02;7.93;;;5.10;;
51738;SDS011;37815;52.692;6.226;2023-02-15T01:34:02;7.35;;;4.90;;
51738;SDS011;37815;52.692;6.226;2023-02-15T01:39:03;5.35;;;4.45;;
51738;SDS011;37815;52.692;6.226;2023-02-15T01:44:40;9.30;;;4.95;;
51738;SDS011;37815;52.692;6.226;2023-02-15T01:49:43;9.48;;;5.10;;
51738;SDS011;37815;52.692;6.226;2023-02-15T01:54:46;7.22;;;4.63;;
51738;SDS011;37815;52.692;6.226;2023-02-15T01:59:48;6.35;;;4.53;;
51738;SDS011;37815;52.692;6.226;2023-02-15T02:04:54;9.05;;;4.90;;
51738;SDS011;37815;52.692;6.226;2023-02-15T02:09:59;8.00;;;5.22;;
51738;SDS011;37815;52.692;6.226;2023-02-15T02:15:01;6.88;;;4.47;;
51738;SDS011;37815;52.692;6.226;2023-02-15T02:51:32;7.18;;;4.32;;
51738;SDS011;37815;52.692;6.226;2023-02-15T02:56:37;7.70;;;4.65;;
51738;SDS011;37815;52.692;6.226;2023-02-15T03:02:05;5.57;;;4.70;;
51738;SDS011;37815;52.692;6.226;2023-02-15T03:07:19;6.50;;;4.90;;
51738;SDS011;37815;52.692;6.226;2023-02-15T03:12:36;7.45;;;4.40;;
51738;SDS011;37815;52.692;6.226;2023-02-15T03:17:43;7.53;;;4.50;;
51738;SDS011;37815;52.692;6.226;2023-02-15T03:22:50;6.63;;;4.70;;
51738;SDS011;37815;52.692;6.226;2023-02-15T03:27:55;6.88;;;4.93;;
51738;SDS011;37815;52.692;6.226;2023-02-15T03:33:01;7.18;;;4.90;;
51738;SDS011;37815;52.692;6.226;2023-02-15T03:38:05;8.27;;;5.40;;
51738;SDS011;37815;52.692;6.226;2023-02-15T03:43:12;6.65;;;4.70;;
51738;SDS011;37815;52.692;6.226;2023-02-15T03:48:28;7.63;;;5.50;;
51738;SDS011;37815;52.692;6.226;2023-02-15T03:53:33;10.35;;;5.38;;
51738;SDS011;37815;52.692;6.226;2023-02-15T03:58:34;8.27;;;4.65;;
51738;SDS011;37815;52.692;6.226;2023-02-15T04:09:05;8.93;;;5.57;;
51738;SDS011;37815;52.692;6.226;2023-02-15T04:14:25;6.93;;;4.93;;
51738;SDS011;37815;52.692;6.226;2023-02-15T04:19:44;7.50;;;5.18;;
51738;SDS011;37815;52.692;6.226;2023-02-15T04:25:09;7.50;;;4.88;;
51738;SDS011;37815;52.692;6.226;2023-02-15T04:30:13;8.95;;;5.80;;
51738;SDS011;37815;52.692;6.226;2023-02-15T04:35:15;8.27;;;5.50;;
51738;SDS011;37815;52.692;6.226;2023-02-15T04:40:16;9.63;;;6.18;;
51738;SDS011;37815;52.692;6.226;2023-02-15T04:45:17;9.07;;;5.82;;
51738;SDS011;37815;52.692;6.226;2023-02-15T04:50:18;9.57;;;5.82;;
51738;SDS011;37815;52.692;6.226;2023-02-15T04:55:18;9.00;;;5.93;;
51738;SDS011;37815;52.692;6.226;2023-02-15T05:00:19;8.88;;;6.25;;
51738;SDS011;37815;52.692;6.226;2023-02-15T05:05:20;9.68;;;6.18;;
51738;SDS011;37815;52.692;6.226;2023-02-15T05:10:21;9.15;;;5.80;;
51738;SDS011;37815;52.692;6.226;2023-02-15T05:15:21;11.15;;;5.78;;
51738;SDS011;37815;52.692;6.226;2023-02-15T05:20:23;9.30;;;6.05;;
51738;SDS011;37815;52.692;6.226;2023-02-15T05:25:24;9.82;;;5.95;;
51738;SDS011;37815;52.692;6.226;2023-02-15T05:30:43;10.57;;;6.43;;
51738;SDS011;37815;52.692;6.226;2023-02-15T05:35:44;10.35;;;6.88;;
51738;SDS011;37815;52.692;6.226;2023-02-15T05:40:44;10.32;;;6.63;;
51738;SDS011;37815;52.692;6.226;2023-02-15T05:45:49;9.70;;;6.63;;
51738;SDS011;37815;52.692;6.226;2023-02-15T05:51:00;10.83;;;6.33;;
51738;SDS011;37815;52.692;6.226;2023-02-15T05:56:04;10.82;;;6.57;;
51738;SDS011;37815;52.692;6.226;2023-02-15T06:06:11;9.52;;;6.53;;
51738;SDS011;37815;52.692;6.226;2023-02-15T06:11:12;12.18;;;6.80;;
51738;SDS011;37815;52.692;6.226;2023-02-15T06:16:12;12.00;;;6.88;;
51738;SDS011;37815;52.692;6.226;2023-02-15T06:21:13;13.20;;;7.93;;
51738;SDS011;37815;52.692;6.226;2023-02-15T06:26:13;10.35;;;6.82;;
51738;SDS011;37815;52.692;6.226;2023-02-15T06:31:14;11.40;;;7.20;;
51738;SDS011;37815;52.692;6.226;2023-02-15T06:36:15;10.38;;;7.00;;
51738;SDS011;37815;52.692;6.226;2023-02-15T06:41:15;10.13;;;7.13;;
51738;SDS011;37815;52.692;6.226;2023-02-15T06:46:16;11.48;;;6.95;;
51738;SDS011;37815;52.692;6.226;2023-02-15T06:51:17;12.07;;;7.22;;
51738;SDS011;37815;52.692;6.226;2023-02-15T06:56:17;10.57;;;7.47;;
51738;SDS011;37815;52.692;6.226;2023-02-15T07:01:18;13.27;;;7.75;;
51738;SDS011;37815;52.692;6.226;2023-02-15T07:06:18;12.85;;;7.50;;
51738;SDS011;37815;52.692;6.226;2023-02-15T07:11:19;12.85;;;7.53;;
51738;SDS011;37815;52.692;6.226;2023-02-15T07:16:38;15.10;;;7.90;;
51738;SDS011;37815;52.692;6.226;2023-02-15T07:21:39;13.10;;;7.47;;
51738;SDS011;37815;52.692;6.226;2023-02-15T07:26:39;10.80;;;6.88;;
51738;SDS011;37815;52.692;6.226;2023-02-15T07:31:40;15.35;;;8.00;;
51738;SDS011;37815;52.692;6.226;2023-02-15T07:36:42;12.40;;;8.27;;
51738;SDS011;37815;52.692;6.226;2023-02-15T07:41:44;13.05;;;7.40;;
51738;SDS011;37815;52.692;6.226;2023-02-15T07:46:45;13.52;;;7.15;;
51738;SDS011;37815;52.692;6.226;2023-02-15T07:51:45;14.93;;;7.90;;
51738;SDS011;37815;52.692;6.226;2023-02-15T07:56:46;13.18;;;7.38;;
51738;SDS011;37815;52.692;6.226;2023-02-15T08:01:46;15.60;;;8.18;;
51738;SDS011;37815;52.692;6.226;2023-02-15T08:06:47;16.98;;;8.50;;
51738;SDS011;37815;52.692;6.226;2023-02-15T08:11:51;13.05;;;7.53;;
51738;SDS011;37815;52.692;6.226;2023-02-15T08:16:53;13.40;;;7.55;;
51738;SDS011;37815;52.692;6.226;2023-02-15T08:21:57;14.52;;;7.68;;
51738;SDS011;37815;52.692;6.226;2023-02-15T08:32:08;14.48;;;7.68;;
51738;SDS011;37815;52.692;6.226;2023-02-15T08:37:09;12.13;;;7.25;;
51738;SDS011;37815;52.692;6.226;2023-02-15T08:42:10;16.13;;;8.15;;
51738;SDS011;37815;52.692;6.226;2023-02-15T08:47:10;16.77;;;7.68;;
51738;SDS011;37815;52.692;6.226;2023-02-15T08:52:11;15.75;;;8.20;;
51738;SDS011;37815;52.692;6.226;2023-02-15T08:57:12;18.60;;;7.95;;
51738;SDS011;37815;52.692;6.226;2023-02-15T09:02:12;16.55;;;8.85;;
51738;SDS011;37815;52.692;6.226;2023-02-15T09:07:13;17.50;;;8.90;;
51738;SDS011;37815;52.692;6.226;2023-02-15T09:12:13;18.58;;;8.95;;
51738;SDS011;37815;52.692;6.226;2023-02-15T09:17:14;16.58;;;8.90;;
51738;SDS011;37815;52.692;6.226;2023-02-15T09:22:14;17.40;;;9.52;;
51738;SDS011;37815;52.692;6.226;2023-02-15T09:27:15;32.45;;;15.25;;
51738;SDS011;37815;52.692;6.226;2023-02-15T09:32:16;31.38;;;13.88;;
51738;SDS011;37815;52.692;6.226;2023-02-15T09:37:17;27.83;;;13.02;;
51738;SDS011;37815;52.692;6.226;2023-02-15T10:25:13;28.80;;;13.35;;
51738;SDS011;37815;52.692;6.226;2023-02-15T10:30:48;29.05;;;12.95;;
51738;SDS011;37815;52.692;6.226;2023-02-15T10:46:55;28.75;;;13.52;;
51738;SDS011;37815;52.692;6.226;2023-02-15T10:58:00;27.52;;;13.23;;
51738;SDS011;37815;52.692;6.226;2023-02-15T11:09:01;26.42;;;12.95;;
51738;SDS011;37815;52.692;6.226;2023-02-15T11:14:14;27.25;;;12.70;;
51738;SDS011;37815;52.692;6.226;2023-02-15T11:19:21;29.27;;;14.18;;
51738;SDS011;37815;52.692;6.226;2023-02-15T11:24:30;29.15;;;13.75;;
51738;SDS011;37815;52.692;6.226;2023-02-15T11:29:40;27.92;;;13.50;;
51738;SDS011;37815;52.692;6.226;2023-02-15T11:34:50;28.02;;;13.40;;
51738;SDS011;37815;52.692;6.226;2023-02-15T11:40:20;30.75;;;14.10;;
51738;SDS011;37815;52.692;6.226;2023-02-15T11:45:31;25.67;;;12.65;;
51738;SDS011;37815;52.692;6.226;2023-02-15T11:50:34;26.73;;;13.98;;
51738;SDS011;37815;52.692;6.226;2023-02-15T11:55:34;32.28;;;13.77;;
51738;SDS011;37815;52.692;6.226;2023-02-15T12:00:37;28.67;;;13.70;;
51738;SDS011;37815;52.692;6.226;2023-02-15T12:05:40;26.73;;;12.73;;
51738;SDS011;37815;52.692;6.226;2023-02-15T12:10:47;29.85;;;14.15;;
51738;SDS011;37815;52.692;6.226;2023-02-15T12:16:04;30.77;;;13.43;;
51738;SDS011;37815;52.692;6.226;2023-02-15T12:21:08;30.45;;;14.98;;
51738;SDS011;37815;52.692;6.226;2023-02-15T12:26:24;32.38;;;13.98;;
51738;SDS011;37815;52.692;6.226;2023-02-15T12:31:44;32.97;;;14.80;;
51738;SDS011;37815;52.692;6.226;2023-02-15T12:36:49;33.17;;;14.70;;
51738;SDS011;37815;52.692;6.226;2023-02-15T12:52:25;28.23;;;14.80;;
51738;SDS011;37815;52.692;6.226;2023-02-15T12:57:31;33.10;;;14.93;;
51738;SDS011;37815;52.692;6.226;2023-02-15T13:02:35;29.65;;;14.52;;
51738;SDS011;37815;52.692;6.226;2023-02-15T13:07:49;31.95;;;14.45;;
51738;SDS011;37815;52.692;6.226;2023-02-15T13:12:53;32.17;;;14.30;;
51738;SDS011;37815;52.692;6.226;2023-02-15T13:17:55;36.85;;;16.35;;
51738;SDS011;37815;52.692;6.226;2023-02-15T13:23:02;37.85;;;15.25;;
51738;SDS011;37815;52.692;6.226;2023-02-15T13:28:05;35.90;;;15.67;;
51738;SDS011;37815;52.692;6.226;2023-02-15T14:09:42;30.38;;;14.60;;
51738;SDS011;37815;52.692;6.226;2023-02-15T14:15:18;29.88;;;14.40;;
51738;SDS011;37815;52.692;6.226;2023-02-15T14:25:52;35.15;;;17.77;;
51738;SDS011;37815;52.692;6.226;2023-02-15T14:31:02;39.67;;;17.35;;
51738;SDS011;37815;52.692;6.226;2023-02-15T14:36:05;36.85;;;16.35;;
51738;SDS011;37815;52.692;6.226;2023-02-15T14:41:18;37.38;;;17.50;;
51738;SDS011;37815;52.692;6.226;2023-02-15T14:46:39;42.30;;;17.63;;
51738;SDS011;37815;52.692;6.226;2023-02-15T15:12:35;40.97;;;16.85;;
51738;SDS011;37815;52.692;6.226;2023-02-15T15:22:40;34.33;;;16.73;;
51738;SDS011;37815;52.692;6.226;2023-02-15T15:27:44;36.35;;;17.95;;
51738;SDS011;37815;52.692;6.226;2023-02-15T15:53:32;35.58;;;16.80;;
51738;SDS011;37815;52.692;6.226;2023-02-15T15:58:44;36.92;;;18.83;;
51738;SDS011;37815;52.692;6.226;2023-02-15T16:08:52;43.90;;;17.08;;
51738;SDS011;37815;52.692;6.226;2023-02-15T16:13:52;38.60;;;16.88;;
51738;SDS011;37815;52.692;6.226;2023-02-15T16:18:54;35.63;;;15.45;;
51738;SDS011;37815;52.692;6.226;2023-02-15T16:29:31;30.40;;;15.57;;
51738;SDS011;37815;52.692;6.226;2023-02-15T16:34:33;30.45;;;13.85;;
51738;SDS011;37815;52.692;6.226;2023-02-15T16:39:33;31.40;;;14.70;;
51738;SDS011;37815;52.692;6.226;2023-02-15T16:44:41;29.92;;;13.93;;
51738;SDS011;37815;52.692;6.226;2023-02-15T16:49:48;30.88;;;15.15;;
51738;SDS011;37815;52.692;6.226;2023-02-15T16:54:53;28.77;;;13.85;;
51738;SDS011;37815;52.692;6.226;2023-02-15T17:00:19;33.20;;;14.32;;
51738;SDS011;37815;52.692;6.226;2023-02-15T17:05:59;29.70;;;15.02;;
51738;SDS011;37815;52.692;6.226;2023-02-15T17:16:26;34.78;;;15.15;;
51738;SDS011;37815;52.692;6.226;2023-02-15T17:21:33;31.20;;;15.18;;
51738;SDS011;37815;52.692;6.226;2023-02-15T17:26:39;34.58;;;14.38;;
51738;SDS011;37815;52.692;6.226;2023-02-15T17:31:40;35.60;;;15.50;;
51738;SDS011;37815;52.692;6.226;2023-02-15T17:37:09;28.70;;;14.50;;
51738;SDS011;37815;52.692;6.226;2023-02-15T17:42:22;30.02;;;14.65;;
51738;SDS011;37815;52.692;6.226;2023-02-15T17:47:23;31.58;;;14.60;;
51738;SDS011;37815;52.692;6.226;2023-02-15T17:52:26;31.05;;;15.25;;
51738;SDS011;37815;52.692;6.226;2023-02-15T17:57:29;29.67;;;14.20;;
51738;SDS011;37815;52.692;6.226;2023-02-15T18:02:31;30.40;;;14.00;;
51738;SDS011;37815;52.692;6.226;2023-02-15T18:07:53;29.38;;;13.57;;
51738;SDS011;37815;52.692;6.226;2023-02-15T18:13:12;31.60;;;13.95;;
51738;SDS011;37815;52.692;6.226;2023-02-15T18:18:13;28.65;;;12.90;;
51738;SDS011;37815;52.692;6.226;2023-02-15T18:23:13;32.20;;;14.55;;
51738;SDS011;37815;52.692;6.226;2023-02-15T18:28:14;27.23;;;12.35;;
51738;SDS011;37815;52.692;6.226;2023-02-15T18:33:23;29.80;;;13.18;;
51738;SDS011;37815;52.692;6.226;2023-02-15T18:38:31;26.50;;;12.63;;
51738;SDS011;37815;52.692;6.226;2023-02-15T18:43:32;25.95;;;12.52;;
51738;SDS011;37815;52.692;6.226;2023-02-15T18:48:33;27.38;;;12.32;;
51738;SDS011;37815;52.692;6.226;2023-02-15T18:53:34;24.35;;;12.73;;
51738;SDS011;37815;52.692;6.226;2023-02-15T18:58:35;26.27;;;12.98;;
51738;SDS011;37815;52.692;6.226;2023-02-15T19:03:35;22.55;;;11.73;;
51738;SDS011;37815;52.692;6.226;2023-02-15T19:08:36;27.67;;;13.48;;
51738;SDS011;37815;52.692;6.226;2023-02-15T19:13:36;26.10;;;12.98;;
51738;SDS011;37815;52.692;6.226;2023-02-15T19:18:37;34.20;;;13.68;;
51738;SDS011;37815;52.692;6.226;2023-02-15T19:23:38;35.15;;;16.38;;
51738;SDS011;37815;52.692;6.226;2023-02-15T19:28:38;34.80;;;15.18;;
51738;SDS011;37815;52.692;6.226;2023-02-15T19:33:39;29.85;;;13.88;;
51738;SDS011;37815;52.692;6.226;2023-02-15T19:38:40;35.97;;;15.38;;
51738;SDS011;37815;52.692;6.226;2023-02-15T19:43:40;34.08;;;14.93;;
51738;SDS011;37815;52.692;6.226;2023-02-15T19:48:41;32.20;;;14.35;;
51738;SDS011;37815;52.692;6.226;2023-02-15T19:53:42;30.10;;;14.70;;
51738;SDS011;37815;52.692;6.226;2023-02-15T19:58:43;32.67;;;13.88;;
51738;SDS011;37815;52.692;6.226;2023-02-15T20:03:44;34.72;;;15.45;;
51738;SDS011;37815;52.692;6.226;2023-02-15T20:08:45;30.13;;;14.25;;
51738;SDS011;37815;52.692;6.226;2023-02-15T20:13:45;28.52;;;14.02;;
51738;SDS011;37815;52.692;6.226;2023-02-15T20:18:46;25.88;;;14.15;;
51738;SDS011;37815;52.692;6.226;2023-02-15T20:23:46;29.70;;;15.13;;
51738;SDS011;37815;52.692;6.226;2023-02-15T20:28:47;27.23;;;14.00;;
51738;SDS011;37815;52.692;6.226;2023-02-15T20:33:48;32.00;;;15.40;;
51738;SDS011;37815;52.692;6.226;2023-02-15T20:38:48;25.88;;;14.30;;
51738;SDS011;37815;52.692;6.226;2023-02-15T20:43:50;29.60;;;14.10;;
51738;SDS011;37815;52.692;6.226;2023-02-15T20:48:50;26.85;;;13.52;;
51738;SDS011;37815;52.692;6.226;2023-02-15T20:53:51;29.35;;;13.30;;
51738;SDS011;37815;52.692;6.226;2023-02-15T20:58:52;26.15;;;13.40;;
51738;SDS011;37815;52.692;6.226;2023-02-15T21:03:52;32.72;;;15.07;;
51738;SDS011;37815;52.692;6.226;2023-02-15T21:08:53;27.85;;;14.02;;
51738;SDS011;37815;52.692;6.226;2023-02-15T21:13:53;27.20;;;13.20;;
51738;SDS011;37815;52.692;6.226;2023-02-15T21:18:54;30.27;;;14.95;;
51738;SDS011;37815;52.692;6.226;2023-02-15T21:23:55;31.90;;;14.02;;
51738;SDS011;37815;52.692;6.226;2023-02-15T21:28:55;27.92;;;13.60;;
51738;SDS011;37815;52.692;6.226;2023-02-15T21:33:56;27.23;;;13.45;;
51738;SDS011;37815;52.692;6.226;2023-02-15T21:38:56;26.88;;;13.75;;
51738;SDS011;37815;52.692;6.226;2023-02-15T21:43:59;31.42;;;14.98;;
51738;SDS011;37815;52.692;6.226;2023-02-15T21:54:19;26.30;;;13.05;;
51738;SDS011;37815;52.692;6.226;2023-02-15T21:59:20;26.40;;;13.73;;
51738;SDS011;37815;52.692;6.226;2023-02-15T22:04:25;26.80;;;14.23;;
51738;SDS011;37815;52.692;6.226;2023-02-15T22:09:27;29.67;;;13.95;;
51738;SDS011;37815;52.692;6.226;2023-02-15T22:19:37;27.25;;;14.48;;
51738;SDS011;37815;52.692;6.226;2023-02-15T22:24:38;29.58;;;14.10;;
51738;SDS011;37815;52.692;6.226;2023-02-15T22:29:39;26.92;;;13.40;;
51738;SDS011;37815;52.692;6.226;2023-02-15T22:34:40;30.25;;;14.23;;
51738;SDS011;37815;52.692;6.226;2023-02-15T22:39:40;28.75;;;14.00;;
51738;SDS011;37815;52.692;6.226;2023-02-15T22:44:41;25.77;;;12.82;;
51738;SDS011;37815;52.692;6.226;2023-02-15T22:49:42;27.90;;;13.85;;
51738;SDS011;37815;52.692;6.226;2023-02-15T22:54:42;25.38;;;13.20;;
51738;SDS011;37815;52.692;6.226;2023-02-15T22:59:43;27.85;;;13.73;;
51738;SDS011;37815;52.692;6.226;2023-02-15T23:04:44;29.27;;;14.13;;
51738;SDS011;37815;52.692;6.226;2023-02-15T23:09:48;28.65;;;13.60;;
51738;SDS011;37815;52.692;6.226;2023-02-15T23:14:50;30.05;;;13.57;;
51738;SDS011;37815;52.692;6.226;2023-02-15T23:19:51;29.50;;;13.73;;
51738;SDS011;37815;52.692;6.226;2023-02-15T23:24:52;29.38;;;14.15;;
51738;SDS011;37815;52.692;6.226;2023-02-15T23:29:52;27.15;;;13.50;;
51738;SDS011;37815;52.692;6.226;2023-02-15T23:34:53;25.85;;;12.32;;
51738;SDS011;37815;52.692;6.226;2023-02-15T23:39:53;35.25;;;13.90;;
51738;SDS011;37815;52.692;6.226;2023-02-15T23:45:30;30.05;;;13.90;;
51738;SDS011;37815;52.692;6.226;2023-02-15T23:50:35;24.30;;;12.63;;
51738;SDS011;37815;52.692;6.226;2023-02-15T23:55:37;25.85;;;12.77;;
